Doles, Idaho
Current Conditions -  °F | °C
As of 7:55 AM on Tuesday 21 Oct 2014 (Local Time) from KEUL Reporting Station
Overcast Overcast  
Wind Chill: 44°   Ceiling: 5000
Heat Index: 48°   Visibility: 10mi
Dew Point: 37°   Wind: 9mph
Humidity: 66%   Direction: 190°S
Pressure: 29.96"   Gusts: NA
Location:  43.676°N, 116.752°W
Report Text: KEUL 211355Z AUTO 19008KT 10SM SCT044 BKN050 OVC120 09/03 A2996 RMK AO1
Loading
Personal Weather Stations






























Interactive Weather Map
Tropical Storm Tracking
New forecast layout! Learn more

10-Day Weather Forecast

Advertisements
Track Severe Weather on mobile